Time,TemperatureF,DewpointF,PressureIn,WindDirection,WindDirectionDegrees,WindSpeedMPH,WindSpeedGustMPH,Humidity,HourlyPrecipIn,Conditions,Clouds,dailyrainin,SoftwareType,DateUTC
2013-05-04 00:05:00,45.3,43.7,30.37,SW,221,0.0,15.0,94,0.00,,,0.00,Wunderground v.1.15,2013-05-04 04:05:00,
2013-05-04 00:10:00,45.3,43.7,30.36,SW,221,0.0,15.0,94,0.00,,,0.00,Wunderground v.1.15,2013-05-04 04:10:00,
2013-05-04 00:15:00,45.2,43.6,30.36,SW,221,0.0,15.0,94,0.00,,,0.00,Wunderground v.1.15,2013-05-04 04:15:00,
2013-05-04 00:20:00,45.1,43.5,30.36,SW,221,0.0,15.0,94,0.00,,,0.00,Wunderground v.1.15,2013-05-04 04:20:00,
2013-05-04 00:30:00,45.1,43.5,30.36,SW,221,0.0,15.0,94,0.00,,,0.00,Wunderground v.1.15,2013-05-04 04:30:00,
2013-05-04 00:40:00,44.7,43.1,30.36,SW,221,0.0,15.0,94,0.00,,,0.00,Wunderground v.1.15,2013-05-04 04:40:00,
2013-05-04 00:50:00,44.7,43.4,30.36,SW,221,0.0,15.0,95,0.00,,,0.00,Wunderground v.1.15,2013-05-04 04:50:00,
2013-05-04 00:55:00,44.8,43.5,30.36,SW,221,0.0,15.0,95,0.00,,,0.00,Wunderground v.1.15,2013-05-04 04:55:00,
2013-05-04 01:00:00,44.8,43.2,30.35,SW,221,0.0,15.0,94,0.00,,,0.00,Wunderground v.1.15,2013-05-04 05:00:00,
2013-05-04 01:05:00,44.7,43.1,30.35,SW,221,0.0,15.0,94,0.00,,,0.00,Wunderground v.1.15,2013-05-04 05:05:00,
2013-05-04 01:10:00,44.6,43.0,30.35,SW,221,0.0,15.0,94,0.00,,,0.00,Wunderground v.1.15,2013-05-04 05:10:00,
2013-05-04 01:20:00,44.5,42.6,30.35,SW,221,0.0,15.0,93,0.00,,,0.00,Wunderground v.1.15,2013-05-04 05:20:00,
2013-05-04 01:30:00,44.5,42.9,30.34,SW,221,0.0,15.0,94,0.00,,,0.00,Wunderground v.1.15,2013-05-04 05:30:00,
2013-05-04 01:35:00,44.4,42.8,30.34,WNW,294,0.0,15.0,94,0.00,,,0.00,Wunderground v.1.15,2013-05-04 05:35:00,
2013-05-04 01:45:00,44.0,42.4,30.34,WNW,302,0.0,15.0,94,0.00,,,0.00,Wunderground v.1.15,2013-05-04 05:45:00,
2013-05-04 01:55:00,43.9,42.0,30.33,WNW,302,0.0,15.0,93,0.00,,,0.00,Wunderground v.1.15,2013-05-04 05:55:00,
2013-05-04 02:05:00,43.7,42.1,30.33,WNW,287,1.0,15.0,94,0.00,,,0.00,Wunderground v.1.15,2013-05-04 06:05:00,
2013-05-04 02:15:00,43.4,41.5,30.33,WNW,287,0.0,15.0,93,0.00,,,0.00,Wunderground v.1.15,2013-05-04 06:15:00,
2013-05-04 02:20:00,43.3,41.4,30.33,WNW,287,0.0,15.0,93,0.00,,,0.00,Wunderground v.1.15,2013-05-04 06:20:00,
2013-05-04 02:30:00,43.1,41.2,30.32,WNW,288,1.0,1.0,93,0.00,,,0.00,Wunderground v.1.15,2013-05-04 06:30:00,
2013-05-04 02:40:00,43.1,41.2,30.32,WNW,290,0.0,15.0,93,0.00,,,0.00,Wunderground v.1.15,2013-05-04 06:40:00,
2013-05-04 02:50:00,43.1,41.2,30.32,WNW,296,0.0,15.0,93,0.00,,,0.00,Wunderground v.1.15,2013-05-04 06:50:00,
2013-05-04 03:00:00,43.1,41.2,30.32,WNW,299,1.0,1.0,93,0.00,,,0.00,Wunderground v.1.15,2013-05-04 07:00:00,
2013-05-04 03:10:00,43.1,40.9,30.31,WNW,300,0.0,15.0,92,0.00,,,0.00,Wunderground v.1.15,2013-05-04 07:10:00,
2013-05-04 03:20:00,43.0,41.1,30.31,WNW,295,0.0,15.0,93,0.00,,,0.00,Wunderground v.1.15,2013-05-04 07:20:00,
2013-05-04 03:30:00,42.9,41.0,30.31,WNW,289,1.0,15.0,93,0.00,,,0.00,Wunderground v.1.15,2013-05-04 07:30:00,
2013-05-04 03:40:00,42.8,40.6,30.31,WNW,293,0.0,15.0,92,0.00,,,0.00,Wunderground v.1.15,2013-05-04 07:40:00,
2013-05-04 03:50:00,42.6,40.7,30.31,WNW,286,0.0,15.0,93,0.00,,,0.00,Wunderground v.1.15,2013-05-04 07:50:00,
2013-05-04 04:00:00,42.5,40.6,30.31,WNW,286,0.0,15.0,93,0.00,,,0.00,Wunderground v.1.15,2013-05-04 08:00:00,
2013-05-04 04:11:00,42.5,40.6,30.31,WNW,286,0.0,15.0,93,0.00,,,0.00,Wunderground v.1.15,2013-05-04 08:11:00,
2013-05-04 04:20:00,42.5,40.3,30.31,WNW,286,0.0,15.0,92,0.00,,,0.00,Wunderground v.1.15,2013-05-04 08:20:00,
2013-05-04 04:30:00,42.4,40.2,30.31,WNW,286,0.0,15.0,92,0.00,,,0.00,Wunderground v.1.15,2013-05-04 08:30:00,
2013-05-04 04:40:00,42.3,40.4,30.31,WNW,287,0.0,15.0,93,0.00,,,0.00,Wunderground v.1.15,2013-05-04 08:40:00,
2013-05-04 04:50:00,42.1,40.2,30.31,WNW,288,0.0,15.0,93,0.00,,,0.00,Wunderground v.1.15,2013-05-04 08:50:00,
2013-05-04 05:00:00,42.0,40.1,30.31,WNW,294,0.0,15.0,93,0.00,,,0.00,Wunderground v.1.15,2013-05-04 09:00:00,
2013-05-04 05:10:00,42.0,40.1,30.31,WNW,294,0.0,15.0,93,0.00,,,0.00,Wunderground v.1.15,2013-05-04 09:10:00,
2013-05-04 05:20:00,41.8,39.9,30.31,WNW,294,0.0,15.0,93,0.00,,,0.00,Wunderground v.1.15,2013-05-04 09:20:00,
2013-05-04 05:30:00,41.7,39.8,30.32,WNW,291,0.0,15.0,93,0.00,,,0.00,Wunderground v.1.15,2013-05-04 09:30:00,
2013-05-04 05:35:00,41.5,39.6,30.32,WNW,291,0.0,15.0,93,0.00,,,0.00,Wunderground v.1.15,2013-05-04 09:35:00,
2013-05-04 05:40:00,41.5,39.6,30.32,WNW,291,0.0,15.0,93,0.00,,,0.00,Wunderground v.1.15,2013-05-04 09:40:00,
2013-05-04 05:50:00,41.5,39.6,30.32,WNW,291,0.0,15.0,93,0.00,,,0.00,Wunderground v.1.15,2013-05-04 09:50:00,
2013-05-04 06:00:00,41.5,39.9,30.32,WNW,291,0.0,15.0,94,0.00,,,0.00,Wunderground v.1.15,2013-05-04 10:00:00,
2013-05-04 06:10:00,41.5,39.9,30.32,WNW,291,0.0,15.0,94,0.00,,,0.00,Wunderground v.1.15,2013-05-04 10:10:00,
2013-05-04 06:20:00,42.3,40.7,30.32,WNW,290,0.0,15.0,94,0.00,,,0.00,Wunderground v.1.15,2013-05-04 10:20:00,
2013-05-04 06:30:00,43.7,41.8,30.32,WNW,291,0.0,15.0,93,0.00,,,0.00,Wunderground v.1.15,2013-05-04 10:30:00,
2013-05-04 06:40:00,45.6,43.7,30.32,NW,307,1.0,15.0,93,0.00,,,0.00,Wunderground v.1.15,2013-05-04 10:40:00,
2013-05-04 06:50:00,46.9,44.1,30.33,NNW,330,1.0,15.0,90,0.00,,,0.00,Wunderground v.1.15,2013-05-04 10:50:00,
2013-05-04 07:00:00,47.7,44.0,30.33,WNW,303,1.0,15.0,87,0.00,,,0.00,Wunderground v.1.15,2013-05-04 11:00:00,
2013-05-04 07:10:00,48.4,44.4,30.32,WNW,293,1.0,15.0,86,0.00,,,0.00,Wunderground v.1.15,2013-05-04 11:10:00,
2013-05-04 07:20:00,49.6,43.0,30.32,North,349,2.0,15.0,78,0.00,,,0.00,Wunderground v.1.15,2013-05-04 11:20:00,
2013-05-04 07:25:00,50.3,43.7,30.32,NNW,336,2.0,15.0,78,0.00,,,0.00,Wunderground v.1.15,2013-05-04 11:25:00,
2013-05-04 07:30:00,50.8,43.2,30.32,NNE,13,2.0,15.0,75,0.00,,,0.00,Wunderground v.1.15,2013-05-04 11:30:00,
2013-05-04 07:40:00,51.7,42.6,30.32,North,3,3.0,15.0,71,0.00,,,0.00,Wunderground v.1.15,2013-05-04 11:40:00,
2013-05-04 08:05:00,52.9,41.8,30.33,North,6,4.0,15.0,66,0.00,,,0.00,Wunderground v.1.15,2013-05-04 12:05:00,
2013-05-04 08:10:00,53.0,42.3,30.32,NNE,26,5.0,15.0,67,0.00,,,0.00,Wunderground v.1.15,2013-05-04 12:10:00,
2013-05-04 08:20:00,53.5,42.4,30.32,NE,44,4.0,15.0,66,0.00,,,0.00,Wunderground v.1.15,2013-05-04 12:20:00,
2013-05-04 08:25:00,53.7,42.6,30.32,NE,40,4.0,15.0,66,0.00,,,0.00,Wunderground v.1.15,2013-05-04 12:25:00,
2013-05-04 08:40:00,54.9,42.9,30.32,NNW,334,4.0,4.0,64,0.00,,,0.00,Wunderground v.1.15,2013-05-04 12:40:00,
2013-05-04 08:45:00,54.9,42.5,30.32,North,9,5.0,6.0,63,0.00,,,0.00,Wunderground v.1.15,2013-05-04 12:45:00,
2013-05-04 08:55:00,55.0,42.6,30.32,East,93,5.0,15.0,63,0.00,,,0.00,Wunderground v.1.15,2013-05-04 12:55:00,
2013-05-04 09:05:00,55.3,42.1,30.32,NE,43,5.0,15.0,61,0.00,,,0.00,Wunderground v.1.15,2013-05-04 13:05:00,
2013-05-04 09:10:00,55.3,42.9,30.32,North,7,6.0,15.0,63,0.00,,,0.00,Wunderground v.1.15,2013-05-04 13:10:00,
2013-05-04 09:20:00,56.6,42.9,30.32,NNE,18,4.0,4.0,60,0.00,,,0.00,Wunderground v.1.15,2013-05-04 13:20:00,
2013-05-04 09:30:00,57.1,42.5,30.32,NW,322,4.0,4.0,58,0.00,,,0.00,Wunderground v.1.15,2013-05-04 13:30:00,
2013-05-04 09:40:00,58.3,43.1,30.31,NNW,343,3.0,15.0,57,0.00,,,0.00,Wunderground v.1.15,2013-05-04 13:40:00,
2013-05-04 09:50:00,58.5,42.8,30.31,NNW,345,3.0,15.0,56,0.00,,,0.00,Wunderground v.1.15,2013-05-04 13:50:00,
2013-05-04 10:00:00,59.1,43.9,30.31,NNW,338,3.0,3.0,57,0.00,,,0.00,Wunderground v.1.15,2013-05-04 14:00:00,
2013-05-04 10:10:00,60.3,43.6,30.31,NNW,343,4.0,4.0,54,0.00,,,0.00,Wunderground v.1.15,2013-05-04 14:10:00,
2013-05-04 10:20:00,60.6,44.3,30.31,NNE,33,4.0,15.0,55,0.00,,,0.00,Wunderground v.1.15,2013-05-04 14:20:00,
2013-05-04 10:25:00,60.0,43.3,30.31,NE,56,6.0,15.0,54,0.00,,,0.00,Wunderground v.1.15,2013-05-04 14:25:00,
2013-05-04 10:35:00,60.3,43.1,30.30,NE,53,4.0,15.0,53,0.00,,,0.00,Wunderground v.1.15,2013-05-04 14:35:00,
2013-05-04 10:45:00,60.4,43.7,30.30,NNE,15,6.0,15.0,54,0.00,,,0.00,Wunderground v.1.15,2013-05-04 14:45:00,
2013-05-04 10:55:00,61.5,45.2,30.30,NE,53,6.0,6.0,55,0.00,,,0.00,Wunderground v.1.15,2013-05-04 14:55:00,
2013-05-04 11:05:00,62.4,45.5,30.30,NNE,24,4.0,15.0,54,0.00,,,0.00,Wunderground v.1.15,2013-05-04 15:05:00,
2013-05-04 11:10:00,62.1,44.8,30.30,ENE,71,4.0,15.0,53,0.00,,,0.00,Wunderground v.1.15,2013-05-04 15:10:00,
2013-05-04 11:20:00,62.0,44.7,30.30,NE,34,5.0,15.0,53,0.00,,,0.00,Wunderground v.1.15,2013-05-04 15:20:00,
2013-05-04 11:25:00,62.2,44.3,30.29,WNW,301,6.0,15.0,52,0.00,,,0.00,Wunderground v.1.15,2013-05-04 15:25:00,
2013-05-04 11:35:00,62.8,44.9,30.29,NE,46,6.0,12.0,52,0.00,,,0.00,Wunderground v.1.15,2013-05-04 15:35:00,
2013-05-04 11:45:00,62.6,45.7,30.29,NNE,18,7.0,15.0,54,0.00,,,0.00,Wunderground v.1.15,2013-05-04 15:45:00,
2013-05-04 11:55:00,62.9,44.0,30.29,NE,42,7.0,15.0,50,0.00,,,0.00,Wunderground v.1.15,2013-05-04 15:55:00,
2013-05-04 12:05:00,63.8,42.6,30.28,NW,321,5.0,15.0,46,0.00,,,0.00,Wunderground v.1.15,2013-05-04 16:05:00,
2013-05-04 12:10:00,63.9,44.4,30.29,NNE,23,7.0,15.0,49,0.00,,,0.00,Wunderground v.1.15,2013-05-04 16:10:00,
2013-05-04 12:20:00,63.6,43.0,30.28,NNE,12,6.0,6.0,47,0.00,,,0.00,Wunderground v.1.15,2013-05-04 16:20:00,
2013-05-04 12:25:00,64.1,43.4,30.28,NNE,24,6.0,15.0,47,0.00,,,0.00,Wunderground v.1.15,2013-05-04 16:25:00,
2013-05-04 12:35:00,65.8,46.1,30.27,WNW,297,3.0,15.0,49,0.00,,,0.00,Wunderground v.1.15,2013-05-04 16:35:00,
2013-05-04 12:45:00,65.4,40.4,30.27,East,100,5.0,15.0,40,0.00,,,0.00,Wunderground v.1.15,2013-05-04 16:45:00,
2013-05-04 12:55:00,65.0,40.7,30.27,ENE,60,7.0,15.0,41,0.00,,,0.00,Wunderground v.1.15,2013-05-04 16:55:00,
2013-05-04 13:00:00,64.8,41.2,30.27,NNE,32,7.0,7.0,42,0.00,,,0.00,Wunderground v.1.15,2013-05-04 17:00:00,
2013-05-04 13:05:00,65.0,40.1,30.27,NE,48,6.0,15.0,40,0.00,,,0.00,Wunderground v.1.15,2013-05-04 17:05:00,
2013-05-04 13:10:00,65.3,40.3,30.27,ENE,63,6.0,15.0,40,0.00,,,0.00,Wunderground v.1.15,2013-05-04 17:10:00,
2013-05-04 13:20:00,65.3,41.0,30.27,North,7,7.0,7.0,41,0.00,,,0.00,Wunderground v.1.15,2013-05-04 17:20:00,
2013-05-04 13:25:00,65.4,39.8,30.27,NE,53,5.0,15.0,39,0.00,,,0.00,Wunderground v.1.15,2013-05-04 17:25:00,
2013-05-04 13:35:00,65.0,38.1,30.27,East,91,8.0,15.0,37,0.00,,,0.00,Wunderground v.1.15,2013-05-04 17:35:00,
2013-05-04 13:40:00,65.4,39.8,30.27,NE,34,8.0,15.0,39,0.00,,,0.00,Wunderground v.1.15,2013-05-04 17:40:00,
2013-05-04 13:45:00,65.5,39.2,30.26,NNW,344,7.0,15.0,38,0.00,,,0.00,Wunderground v.1.15,2013-05-04 17:45:00,
2013-05-04 13:55:00,65.6,37.9,30.26,NE,34,7.0,15.0,36,0.00,,,0.00,Wunderground v.1.15,2013-05-04 17:55:00,
2013-05-04 14:05:00,65.5,38.5,30.26,NE,39,7.0,15.0,37,0.00,,,0.00,Wunderground v.1.15,2013-05-04 18:05:00,
2013-05-04 14:15:00,66.0,39.0,30.26,NW,313,4.0,15.0,37,0.00,,,0.00,Wunderground v.1.15,2013-05-04 18:15:00,
2013-05-04 14:20:00,66.3,37.8,30.26,East,89,4.0,4.0,35,0.00,,,0.00,Wunderground v.1.15,2013-05-04 18:20:00,
2013-05-04 14:30:00,66.6,38.8,30.26,NE,35,4.0,15.0,36,0.00,,,0.00,Wunderground v.1.15,2013-05-04 18:30:00,
2013-05-04 14:40:00,66.3,38.5,30.25,North,358,5.0,15.0,36,0.00,,,0.00,Wunderground v.1.15,2013-05-04 18:40:00,
2013-05-04 14:50:00,65.6,43.7,30.26,South,186,4.0,4.0,45,0.00,,,0.00,Wunderground v.1.15,2013-05-04 18:50:00,
2013-05-04 15:00:00,64.1,43.4,30.25,South,174,4.0,15.0,47,0.00,,,0.00,Wunderground v.1.15,2013-05-04 19:00:00,
2013-05-04 15:10:00,63.3,44.3,30.25,SE,136,3.0,15.0,50,0.00,,,0.00,Wunderground v.1.15,2013-05-04 19:10:00,
2013-05-04 15:20:00,62.7,43.3,30.25,ESE,107,3.0,15.0,49,0.00,,,0.00,Wunderground v.1.15,2013-05-04 19:20:00,
2013-05-04 15:25:00,62.0,42.6,30.25,SSE,157,5.0,15.0,49,0.00,,,0.00,Wunderground v.1.15,2013-05-04 19:25:00,
2013-05-04 15:35:00,62.0,42.6,30.25,SE,127,4.0,15.0,49,0.00,,,0.00,Wunderground v.1.15,2013-05-04 19:35:00,
2013-05-04 15:45:00,62.1,44.3,30.25,South,169,3.0,15.0,52,0.00,,,0.00,Wunderground v.1.15,2013-05-04 19:45:00,
2013-05-04 15:55:00,61.8,44.0,30.25,SSE,159,3.0,15.0,52,0.00,,,0.00,Wunderground v.1.15,2013-05-04 19:55:00,
2013-05-04 16:05:00,61.3,44.0,30.25,SE,140,3.0,15.0,53,0.00,,,0.00,Wunderground v.1.15,2013-05-04 20:05:00,
2013-05-04 16:10:00,61.1,44.3,30.25,East,82,3.0,3.0,54,0.00,,,0.00,Wunderground v.1.15,2013-05-04 20:10:00,
2013-05-04 16:20:00,61.0,44.2,30.25,South,179,3.0,15.0,54,0.00,,,0.00,Wunderground v.1.15,2013-05-04 20:20:00,
2013-05-04 16:25:00,60.9,44.1,30.25,SSE,158,3.0,15.0,54,0.00,,,0.00,Wunderground v.1.15,2013-05-04 20:25:00,
2013-05-04 16:35:00,60.3,43.6,30.25,ESE,113,2.0,15.0,54,0.00,,,0.00,Wunderground v.1.15,2013-05-04 20:35:00,
2013-05-04 16:40:00,60.0,43.3,30.25,SSE,164,3.0,15.0,54,0.00,,,0.00,Wunderground v.1.15,2013-05-04 20:40:00,
2013-05-04 16:50:00,59.9,43.7,30.25,West,259,3.0,15.0,55,0.00,,,0.00,Wunderground v.1.15,2013-05-04 20:50:00,
2013-05-04 16:55:00,59.7,42.5,30.25,SW,231,2.0,15.0,53,0.00,,,0.00,Wunderground v.1.15,2013-05-04 20:55:00,
2013-05-04 17:05:00,59.3,43.1,30.25,SE,142,2.0,15.0,55,0.00,,,0.00,Wunderground v.1.15,2013-05-04 21:05:00,
2013-05-04 17:10:00,59.0,42.8,30.25,East,91,2.0,15.0,55,0.00,,,0.00,Wunderground v.1.15,2013-05-04 21:10:00,
2013-05-04 17:20:00,58.7,42.1,30.25,ESE,121,2.0,15.0,54,0.00,,,0.00,Wunderground v.1.15,2013-05-04 21:20:00,
2013-05-04 17:25:00,58.5,41.9,30.25,SW,221,2.0,15.0,54,0.00,,,0.00,Wunderground v.1.15,2013-05-04 21:25:00,
2013-05-04 17:35:00,58.5,42.4,30.25,SSE,159,2.0,15.0,55,0.00,,,0.00,Wunderground v.1.15,2013-05-04 21:35:00,
2013-05-04 17:45:00,58.4,41.8,30.25,South,188,2.0,15.0,54,0.00,,,0.00,Wunderground v.1.15,2013-05-04 21:45:00,
2013-05-04 17:55:00,57.9,41.8,30.25,ESE,110,2.0,15.0,55,0.00,,,0.00,Wunderground v.1.15,2013-05-04 21:55:00,
2013-05-04 18:00:00,57.8,41.7,30.25,South,173,2.0,15.0,55,0.00,,,0.00,Wunderground v.1.15,2013-05-04 22:00:00,
2013-05-04 18:10:00,57.4,42.3,30.25,ESE,120,2.0,15.0,57,0.00,,,0.00,Wunderground v.1.15,2013-05-04 22:10:00,
2013-05-04 18:15:00,56.9,41.8,30.26,SE,124,2.0,15.0,57,0.00,,,0.00,Wunderground v.1.15,2013-05-04 22:15:00,
2013-05-04 18:25:00,56.4,41.8,30.26,SE,124,2.0,3.0,58,0.00,,,0.00,Wunderground v.1.15,2013-05-04 22:25:00,
2013-05-04 18:35:00,55.5,42.3,30.26,SSE,155,3.0,15.0,61,0.00,,,0.00,Wunderground v.1.15,2013-05-04 22:35:00,
2013-05-04 18:40:00,55.3,41.6,30.26,SSW,198,2.0,2.0,60,0.00,,,0.00,Wunderground v.1.15,2013-05-04 22:40:00,
2013-05-04 18:50:00,54.8,41.6,30.26,South,187,1.0,1.0,61,0.00,,,0.00,Wunderground v.1.15,2013-05-04 22:50:00,
2013-05-04 18:55:00,54.4,41.2,30.26,South,173,1.0,2.0,61,0.00,,,0.00,Wunderground v.1.15,2013-05-04 22:55:00,
2013-05-04 19:05:00,53.0,40.7,30.26,SE,130,2.0,15.0,63,0.00,,,0.00,Wunderground v.1.15,2013-05-04 23:05:00,
2013-05-04 19:10:00,52.5,41.1,30.26,SSE,150,2.0,2.0,65,0.00,,,0.00,Wunderground v.1.15,2013-05-04 23:10:00,
2013-05-04 19:20:00,51.8,40.8,30.27,South,178,1.0,1.0,66,0.00,,,0.00,Wunderground v.1.15,2013-05-04 23:20:00,
2013-05-04 19:25:00,51.4,40.8,30.27,SW,214,1.0,15.0,67,0.00,,,0.00,Wunderground v.1.15,2013-05-04 23:25:00,
2013-05-04 19:35:00,50.6,40.8,30.27,SSW,213,1.0,15.0,69,0.00,,,0.00,Wunderground v.1.15,2013-05-04 23:35:00,
2013-05-04 19:45:00,50.1,40.3,30.27,South,191,1.0,15.0,69,0.00,,,0.00,Wunderground v.1.15,2013-05-04 23:45:00,
2013-05-04 19:50:00,49.8,40.4,30.27,SSE,160,1.0,15.0,70,0.00,,,0.00,Wunderground v.1.15,2013-05-04 23:50:00,
2013-05-04 20:00:00,49.2,40.6,30.28,South,174,0.0,15.0,72,0.00,,,0.00,Wunderground v.1.15,2013-05-05 00:00:00,
2013-05-04 20:10:00,48.6,40.3,30.28,South,173,0.0,15.0,73,0.00,,,0.00,Wunderground v.1.15,2013-05-05 00:10:00,
2013-05-04 20:20:00,48.0,40.1,30.29,SSW,212,1.0,1.0,74,0.00,,,0.00,Wunderground v.1.15,2013-05-05 00:20:00,
2013-05-04 20:25:00,47.6,40.1,30.29,SSW,212,0.0,15.0,75,0.00,,,0.00,Wunderground v.1.15,2013-05-05 00:25:00,
2013-05-04 20:35:00,47.0,39.8,30.29,SSW,212,0.0,15.0,76,0.00,,,0.00,Wunderground v.1.15,2013-05-05 00:35:00,
2013-05-04 20:45:00,46.3,39.8,30.29,SSW,212,0.0,15.0,78,0.00,,,0.00,Wunderground v.1.15,2013-05-05 00:45:00,
2013-05-04 20:55:00,45.7,39.6,30.29,SSW,212,0.0,15.0,79,0.00,,,0.00,Wunderground v.1.15,2013-05-05 00:55:00,
2013-05-04 21:05:00,45.1,39.3,30.29,SSW,212,0.0,15.0,80,0.00,,,0.00,Wunderground v.1.15,2013-05-05 01:05:00,
2013-05-04 21:10:00,44.9,39.4,30.29,SSW,212,0.0,15.0,81,0.00,,,0.00,Wunderground v.1.15,2013-05-05 01:10:00,
2013-05-04 21:20:00,44.5,39.7,30.29,SSW,212,0.0,15.0,83,0.00,,,0.00,Wunderground v.1.15,2013-05-05 01:20:00,
2013-05-04 21:25:00,44.2,39.4,30.29,SSW,212,0.0,15.0,83,0.00,,,0.00,Wunderground v.1.15,2013-05-05 01:25:00,
2013-05-04 21:35:00,43.6,39.1,30.29,SSW,212,0.0,15.0,84,0.00,,,0.00,Wunderground v.1.15,2013-05-05 01:35:00,
2013-05-04 21:45:00,42.9,38.7,30.30,SSW,212,0.0,15.0,85,0.00,,,0.00,Wunderground v.1.15,2013-05-05 01:45:00,
2013-05-04 21:55:00,42.7,39.4,30.30,SSW,212,0.0,15.0,88,0.00,,,0.00,Wunderground v.1.15,2013-05-05 01:55:00,
2013-05-04 22:05:00,42.5,39.2,30.30,SSW,212,0.0,15.0,88,0.00,,,0.00,Wunderground v.1.15,2013-05-05 02:05:00,
2013-05-04 22:10:00,42.5,39.2,30.30,SSW,212,0.0,15.0,88,0.00,,,0.00,Wunderground v.1.15,2013-05-05 02:10:00,
2013-05-04 22:20:00,42.2,39.2,30.30,SSW,212,0.0,15.0,89,0.00,,,0.00,Wunderground v.1.15,2013-05-05 02:20:00,
2013-05-04 22:25:00,42.1,39.4,30.30,SSW,212,0.0,15.0,90,0.00,,,0.00,Wunderground v.1.15,2013-05-05 02:25:00,
2013-05-04 22:35:00,42.2,39.5,30.30,SW,214,0.0,15.0,90,0.00,,,0.00,Wunderground v.1.15,2013-05-05 02:35:00,
2013-05-04 22:45:00,42.0,39.6,30.30,SW,214,0.0,15.0,91,0.00,,,0.00,Wunderground v.1.15,2013-05-05 02:45:00,
2013-05-04 22:50:00,42.0,39.6,30.30,SW,226,0.0,15.0,91,0.00,,,0.00,Wunderground v.1.15,2013-05-05 02:50:00,
2013-05-04 23:00:00,41.9,39.5,30.30,SW,226,0.0,15.0,91,0.00,,,0.00,Wunderground v.1.15,2013-05-05 03:00:00,
2013-05-04 23:10:00,41.6,39.2,30.30,SW,226,0.0,15.0,91,0.00,,,0.00,Wunderground v.1.15,2013-05-05 03:10:00,
2013-05-04 23:20:00,41.3,39.2,30.30,SW,226,0.0,15.0,92,0.00,,,0.00,Wunderground v.1.15,2013-05-05 03:20:00,
2013-05-04 23:30:00,41.1,39.2,30.30,SW,226,0.0,15.0,93,0.00,,,0.00,Wunderground v.1.15,2013-05-05 03:30:00,
2013-05-04 23:40:00,41.0,39.1,30.30,SW,226,0.0,15.0,93,0.00,,,0.00,Wunderground v.1.15,2013-05-05 03:40:00,
2013-05-04 23:50:00,40.9,39.0,30.30,SW,232,0.0,15.0,93,0.00,,,0.00,Wunderground v.1.15,2013-05-05 03:50:00,